Time;durP1;ratioP1;P1;durP2;ratioP2;P2;SDS_P1;SDS_P2;PMS_P1;PMS_P2;Temp;Humidity;BMP_temperature;BMP_pressure;BME280_temperature;BME280_humidity;BME280_pressure;Samples;Min_cycle;Max_cycle;Signal;HPM_P1;HPM_P2
2023/05/24 00:02:12;;;;;;;8.88;2.80;;;12.70;59.50;;;;;;5090506;28;20059;-70
2023/05/24 00:04:39;;;;;;;11.30;3.60;;;12.70;59.50;;;;;;5090542;28;20491;-70
2023/05/24 00:07:05;;;;;;;10.10;4.57;;;12.70;59.50;;;;;;5094139;28;20060;-70
2023/05/24 00:09:31;;;;;;;13.23;4.60;;;12.60;59.50;;;;;;5090381;28;20046;-70
2023/05/24 00:11:57;;;;;;;12.35;3.63;;;12.60;59.60;;;;;;5090544;28;20040;-70
2023/05/24 00:14:23;;;;;;;19.88;5.07;;;12.60;59.60;;;;;;5090366;28;20040;-70
2023/05/24 00:16:49;;;;;;;10.45;3.05;;;12.70;59.70;;;;;;5073747;28;20040;-69
2023/05/24 00:19:17;;;;;;;12.95;4.32;;;12.60;59.70;;;;;;5111870;28;20403;-70
2023/05/24 00:21:46;;;;;;;14.43;4.25;;;12.60;59.70;;;;;;5115686;28;20036;-70
2023/05/24 00:24:12;;;;;;;16.27;3.88;;;12.60;59.80;;;;;;5090708;28;20044;-70
2023/05/24 00:26:38;;;;;;;13.50;3.65;;;12.60;59.80;;;;;;5090602;28;20048;-70
2023/05/24 00:29:04;;;;;;;14.48;3.88;;;12.60;59.90;;;;;;5114390;28;20028;-70
2023/05/24 00:31:30;;;;;;;11.57;3.88;;;12.60;60.30;;;;;;5111970;28;20424;-70
2023/05/24 00:33:56;;;;;;;11.35;3.78;;;12.60;59.90;;;;;;5118095;27;20048;-70
2023/05/24 00:36:22;;;;;;;13.77;3.50;;;12.60;59.90;;;;;;5089916;28;20036;-70
2023/05/24 00:38:48;;;;;;;12.88;4.15;;;12.60;60.00;;;;;;5121799;27;20476;-70
2023/05/24 00:41:14;;;;;;;11.23;3.35;;;12.60;60.00;;;;;;5093482;28;20050;-69
2023/05/24 00:43:42;;;;;;;11.25;3.20;;;12.60;60.00;;;;;;5126929;27;20440;-69
2023/05/24 00:46:42;;;;;;;12.63;3.90;;;12.50;60.00;;;;;;5118045;27;20036;-71
2023/05/24 00:49:09;;;;;;;13.00;3.38;;;12.50;60.10;;;;;;5089157;28;20059;-70
2023/05/24 00:51:35;;;;;;;8.95;3.00;;;12.50;60.20;;;;;;5076378;28;20494;-70
2023/05/24 00:54:01;;;;;;;7.88;3.22;;;12.50;60.30;;;;;;5094816;28;20097;-70
2023/05/24 00:56:28;;;;;;;8.43;3.72;;;12.50;60.50;;;;;;5121094;27;20040;-70
2023/05/24 00:58:54;;;;;;;10.23;3.30;;;12.50;60.50;;;;;;5093273;28;20065;-70
2023/05/24 01:01:24;;;;;;;8.55;2.50;;;12.50;60.50;;;;;;5094491;28;20040;-69
2023/05/24 01:03:52;;;;;;;13.70;4.03;;;12.50;60.50;;;;;;5076429;28;20059;-69
2023/05/24 01:06:18;;;;;;;12.95;3.72;;;12.50;60.60;;;;;;5092652;28;20090;-69
2023/05/24 01:09:12;;;;;;;11.93;3.38;;;12.50;60.60;;;;;;5115248;27;20086;-69
2023/05/24 01:11:56;;;;;;;11.18;3.83;;;12.50;60.60;;;;;;5120612;27;20044;-69
2023/05/24 01:14:51;;;;;;;13.73;3.42;;;12.50;60.60;;;;;;5090326;28;20105;-69
2023/05/24 01:17:33;;;;;;;10.20;3.13;;;12.40;60.60;;;;;;5112478;27;20036;-69
2023/05/24 01:20:09;;;;;;;11.95;3.60;;;12.50;61.10;;;;;;5093051;28;20028;-70
2023/05/24 01:23:05;;;;;;;10.38;3.38;;;12.40;60.70;;;;;;5126630;27;20464;-70
2023/05/24 01:25:48;;;;;;;9.43;2.75;;;12.40;60.80;;;;;;5092406;28;20039;-70
2023/05/24 01:28:16;;;;;;;13.27;3.97;;;12.50;60.90;;;;;;5091970;28;20040;-69
2023/05/24 01:30:42;;;;;;;11.30;3.30;;;12.40;60.90;;;;;;5117576;27;20047;-70
2023/05/24 01:33:08;;;;;;;11.13;4.03;;;12.40;60.90;;;;;;5119372;27;20040;-69
2023/05/24 01:35:39;;;;;;;10.35;3.88;;;12.40;61.00;;;;;;5093756;28;20040;-69
2023/05/24 01:38:06;;;;;;;10.35;3.72;;;12.40;61.10;;;;;;5092382;28;20101;-70
2023/05/24 01:40:32;;;;;;;10.18;3.45;;;12.40;61.10;;;;;;5074500;28;20200;-69
2023/05/24 01:43:16;;;;;;;12.25;3.60;;;12.40;61.00;;;;;;5092445;28;20048;-69
2023/05/24 01:46:24;;;;;;;12.73;4.28;;;12.40;61.00;;;;;;5091488;28;20046;-70
2023/05/24 01:49:10;;;;;;;11.55;3.58;;;12.40;61.00;;;;;;5073526;28;20625;-70
2023/05/24 01:51:48;;;;;;;15.63;3.70;;;12.40;61.10;;;;;;5092585;28;20515;-70
2023/05/24 01:54:19;;;;;;;12.45;3.67;;;12.40;61.20;;;;;;5113758;27;20500;-70
2023/05/24 01:56:47;;;;;;;14.45;3.78;;;12.40;61.20;;;;;;5117975;27;20032;-70
2023/05/24 01:59:13;;;;;;;10.35;3.78;;;12.30;61.20;;;;;;5118097;27;20043;-69
2023/05/24 02:01:40;;;;;;;9.68;3.08;;;12.30;61.20;;;;;;5115020;27;20063;-70
2023/05/24 02:04:06;;;;;;;12.27;3.53;;;12.30;61.20;;;;;;5119798;27;20036;-69
2023/05/24 02:06:32;;;;;;;11.60;3.78;;;12.30;61.20;;;;;;5121363;27;20032;-69
2023/05/24 02:08:57;;;;;;;11.18;3.38;;;12.30;61.20;;;;;;5092095;28;20031;-69
2023/05/24 02:11:23;;;;;;;14.85;4.38;;;12.30;61.20;;;;;;5092270;28;20596;-69
2023/05/24 02:13:49;;;;;;;10.85;3.75;;;12.30;61.20;;;;;;5075179;28;20043;-70
2023/05/24 02:16:16;;;;;;;12.48;4.10;;;12.30;61.20;;;;;;5075164;28;20036;-69
2023/05/24 02:18:45;;;;;;;11.77;4.22;;;12.30;61.20;;;;;;5092244;28;20051;-70
2023/05/24 02:21:11;;;;;;;13.15;3.85;;;12.20;61.20;;;;;;5108943;27;20047;-70
2023/05/24 02:23:37;;;;;;;11.45;4.32;;;12.20;61.10;;;;;;5116014;27;20120;-70
2023/05/24 02:26:03;;;;;;;11.75;3.47;;;12.20;61.20;;;;;;5111784;27;20115;-70
2023/05/24 02:28:31;;;;;;;11.32;4.35;;;12.20;61.20;;;;;;5091614;28;20058;-70
2023/05/24 02:30:57;;;;;;;9.43;3.28;;;12.20;61.20;;;;;;5091794;28;20085;-69
2023/05/24 02:33:25;;;;;;;13.43;4.35;;;12.10;61.20;;;;;;5109252;27;20076;-70
2023/05/24 02:35:51;;;;;;;12.70;3.45;;;12.10;61.30;;;;;;5091708;28;20115;-69
2023/05/24 02:38:16;;;;;;;12.18;3.53;;;12.10;61.40;;;;;;5117313;27;20111;-70
2023/05/24 02:40:43;;;;;;;9.15;3.53;;;12.10;61.40;;;;;;5091292;28;20044;-69
2023/05/24 02:43:09;;;;;;;10.98;3.42;;;12.10;61.50;;;;;;5117301;27;20045;-69
2023/05/24 02:45:36;;;;;;;10.85;3.63;;;12.10;61.50;;;;;;5091644;28;20046;-70
2023/05/24 02:48:02;;;;;;;10.10;3.63;;;12.00;61.50;;;;;;5091278;28;20071;-70
2023/05/24 02:50:27;;;;;;;9.23;3.90;;;12.00;61.50;;;;;;5091218;28;20091;-69
2023/05/24 02:52:53;;;;;;;12.75;4.38;;;12.00;61.50;;;;;;5122142;27;20082;-69
2023/05/24 02:55:19;;;;;;;10.77;3.58;;;12.00;61.50;;;;;;5113233;27;20048;-70
2023/05/24 02:57:46;;;;;;;10.07;3.45;;;12.00;61.60;;;;;;5091099;28;20040;-70
2023/05/24 03:00:13;;;;;;;14.50;3.55;;;12.00;61.70;;;;;;5092414;28;20127;-69
2023/05/24 03:02:39;;;;;;;12.75;3.50;;;12.00;61.80;;;;;;5091118;28;20035;-69
2023/05/24 03:05:06;;;;;;;10.52;3.35;;;12.00;61.80;;;;;;5115939;27;20036;-70
2023/05/24 03:07:32;;;;;;;11.02;4.10;;;12.00;61.90;;;;;;5124487;27;20048;-70
2023/05/24 03:09:58;;;;;;;11.88;4.55;;;11.90;61.90;;;;;;5090911;28;20759;-69
2023/05/24 03:12:24;;;;;;;13.88;4.03;;;11.90;61.90;;;;;;5113814;27;20072;-69
2023/05/24 03:14:50;;;;;;;8.63;3.15;;;11.90;62.00;;;;;;5122871;27;20071;-70
2023/05/24 03:17:15;;;;;;;13.65;3.63;;;11.90;62.10;;;;;;5074811;28;20051;-70
2023/05/24 03:19:41;;;;;;;9.68;3.33;;;11.90;62.20;;;;;;5109012;27;20044;-69
2023/05/24 03:22:07;;;;;;;12.23;4.15;;;11.90;62.20;;;;;;5090696;28;20036;-69
2023/05/24 03:24:33;;;;;;;11.63;3.50;;;11.80;62.20;;;;;;5116417;28;20044;-69
2023/05/24 03:26:59;;;;;;;11.23;3.75;;;11.80;62.20;;;;;;5056824;28;20031;-69
2023/05/24 03:29:25;;;;;;;11.15;3.72;;;11.80;62.40;;;;;;5113316;27;20044;-70
2023/05/24 03:31:51;;;;;;;11.75;4.07;;;11.80;62.40;;;;;;5073977;28;20169;-70
2023/05/24 03:34:16;;;;;;;9.73;3.20;;;11.80;62.50;;;;;;5108058;28;20040;-69
2023/05/24 03:36:42;;;;;;;9.15;3.67;;;11.80;62.60;;;;;;5113579;27;20546;-70
2023/05/24 03:39:08;;;;;;;10.68;3.38;;;11.80;62.70;;;;;;5090499;28;20044;-69
2023/05/24 03:41:34;;;;;;;11.75;3.83;;;11.80;62.80;;;;;;5090467;28;20067;-69
2023/05/24 03:44:00;;;;;;;10.90;3.45;;;11.80;62.80;;;;;;5109494;28;20045;-69
2023/05/24 03:46:25;;;;;;;12.77;3.90;;;11.70;62.80;;;;;;5056973;28;20040;-69
2023/05/24 03:48:51;;;;;;;13.35;4.20;;;11.70;62.90;;;;;;5090888;28;20032;-70
2023/05/24 03:51:17;;;;;;;10.00;3.35;;;11.70;62.90;;;;;;5090779;28;20044;-70
2023/05/24 03:53:43;;;;;;;9.98;3.83;;;11.70;63.00;;;;;;5112893;28;20043;-69
2023/05/24 03:56:08;;;;;;;14.30;4.43;;;11.70;63.00;;;;;;5090442;28;20044;-70
2023/05/24 03:58:34;;;;;;;12.60;3.78;;;11.70;63.10;;;;;;5073667;28;20395;-69
2023/05/24 04:01:00;;;;;;;10.43;3.50;;;11.70;63.20;;;;;;5073574;28;20044;-69
2023/05/24 04:03:26;;;;;;;9.88;3.50;;;11.70;63.20;;;;;;5119640;28;20525;-69
2023/05/24 04:05:53;;;;;;;12.32;4.25;;;11.70;63.20;;;;;;5116058;28;20040;-69
2023/05/24 04:08:19;;;;;;;11.27;3.38;;;11.70;63.30;;;;;;5092287;28;20040;-70
2023/05/24 04:10:44;;;;;;;11.43;4.32;;;11.70;63.40;;;;;;5125678;27;20471;-69
2023/05/24 04:13:10;;;;;;;9.70;3.42;;;11.70;63.40;;;;;;5116454;27;20044;-70
2023/05/24 04:15:39;;;;;;;11.00;3.92;;;11.70;63.40;;;;;;5094190;28;20095;-69
2023/05/24 04:18:05;;;;;;;11.57;3.78;;;11.70;63.40;;;;;;5121961;27;20047;-69
2023/05/24 04:20:31;;;;;;;9.13;3.22;;;11.70;63.50;;;;;;5093779;28;20036;-70
2023/05/24 04:22:57;;;;;;;9.07;3.30;;;11.60;63.60;;;;;;5093908;28;20116;-70
2023/05/24 04:25:23;;;;;;;12.45;4.15;;;11.70;63.70;;;;;;5127716;27;20494;-69
2023/05/24 04:27:49;;;;;;;12.15;3.85;;;11.70;63.80;;;;;;5114527;27;20075;-70
2023/05/24 04:30:15;;;;;;;12.65;3.80;;;11.60;63.80;;;;;;5095472;28;20044;-69
2023/05/24 04:32:44;;;;;;;10.30;3.35;;;11.70;63.90;;;;;;5093876;28;20039;-69
2023/05/24 04:35:10;;;;;;;12.80;3.58;;;11.70;63.90;;;;;;5124638;27;20045;-70
2023/05/24 04:37:36;;;;;;;10.18;3.63;;;11.70;64.00;;;;;;5093943;28;20036;-69
2023/05/24 04:40:06;;;;;;;13.40;4.68;;;11.70;64.00;;;;;;5093504;28;20522;-70
2023/05/24 04:42:31;;;;;;;11.85;4.25;;;11.60;64.00;;;;;;5094496;28;20048;-70
2023/05/24 04:44:58;;;;;;;11.18;3.30;;;11.70;64.10;;;;;;5076922;28;20097;-69
2023/05/24 04:47:24;;;;;;;14.25;4.13;;;11.70;64.10;;;;;;5093561;28;20032;-71
2023/05/24 04:49:50;;;;;;;11.15;3.47;;;11.70;64.20;;;;;;5122054;27;20101;-71
2023/05/24 04:52:17;;;;;;;12.68;3.38;;;11.70;64.30;;;;;;5115943;27;20036;-70
2023/05/24 04:54:43;;;;;;;17.00;4.07;;;11.60;64.30;;;;;;5111434;27;20177;-70
2023/05/24 04:57:08;;;;;;;13.40;3.75;;;11.70;64.60;;;;;;5093498;28;20056;-70
2023/05/24 04:59:35;;;;;;;13.77;4.35;;;11.70;64.70;;;;;;5118533;27;20044;-70
2023/05/24 05:02:00;;;;;;;12.13;4.22;;;11.70;64.80;;;;;;5076045;28;20089;-71
2023/05/24 05:04:26;;;;;;;9.13;3.00;;;11.60;64.90;;;;;;5093025;28;20107;-70
2023/05/24 05:06:52;;;;;;;10.32;3.30;;;11.70;64.90;;;;;;5076432;28;20079;-70
2023/05/24 05:09:18;;;;;;;16.38;3.60;;;11.60;64.90;;;;;;5102920;28;20039;-70
2023/05/24 05:11:45;;;;;;;10.63;3.10;;;11.60;64.90;;;;;;5092992;28;20039;-71
2023/05/24 05:14:11;;;;;;;9.70;3.53;;;11.70;65.00;;;;;;5093030;28;20032;-69
2023/05/24 05:16:37;;;;;;;15.32;3.25;;;11.70;65.10;;;;;;5121186;27;20040;-69
2023/05/24 05:19:04;;;;;;;7.13;3.00;;;11.70;65.20;;;;;;5074760;28;20044;-69
2023/05/24 05:21:33;;;;;;;9.57;2.80;;;11.70;65.40;;;;;;5093169;28;20115;-70
2023/05/24 05:23:59;;;;;;;9.32;3.35;;;11.70;65.50;;;;;;5128289;27;20043;-70
2023/05/24 05:26:28;;;;;;;11.77;3.95;;;11.70;65.70;;;;;;5094838;28;20092;-71
2023/05/24 05:28:55;;;;;;;11.10;3.55;;;11.70;66.00;;;;;;5093932;28;20047;-69
2023/05/24 05:31:21;;;;;;;9.05;3.60;;;11.70;66.50;;;;;;5093549;28;20044;-70
2023/05/24 05:33:47;;;;;;;12.77;3.83;;;11.70;66.20;;;;;;5093702;28;20036;-70
2023/05/24 05:36:13;;;;;;;17.38;4.28;;;11.80;66.60;;;;;;5093437;28;20515;-70
2023/05/24 05:38:39;;;;;;;13.02;4.05;;;11.80;66.60;;;;;;5116043;27;20128;-71
2023/05/24 05:41:06;;;;;;;10.07;3.40;;;11.80;66.80;;;;;;5093031;28;20119;-70
2023/05/24 05:43:31;;;;;;;12.88;4.45;;;11.80;66.90;;;;;;5093126;28;20048;-70
2023/05/24 05:45:57;;;;;;;14.10;3.95;;;11.80;67.10;;;;;;5127483;27;20047;-70
2023/05/24 05:48:23;;;;;;;16.10;4.28;;;11.80;67.20;;;;;;5093328;28;20063;-70
2023/05/24 05:50:48;;;;;;;12.60;4.45;;;11.80;67.60;;;;;;5093141;28;20047;-70
2023/05/24 05:53:15;;;;;;;13.70;4.55;;;11.90;67.80;;;;;;5093731;28;20039;-70
2023/05/24 05:55:41;;;;;;;13.60;4.30;;;11.90;67.80;;;;;;5075896;28;20040;-71
2023/05/24 05:58:06;;;;;;;12.68;3.45;;;11.90;68.00;;;;;;5092955;28;20529;-70
2023/05/24 06:00:32;;;;;;;10.27;3.70;;;11.90;68.10;;;;;;5076140;28;20036;-70
2023/05/24 06:02:58;;;;;;;11.85;3.35;;;12.00;68.20;;;;;;5093562;28;20112;-70
2023/05/24 06:05:24;;;;;;;10.65;4.38;;;12.00;68.40;;;;;;5076330;28;20399;-70
2023/05/24 06:07:49;;;;;;;13.18;3.55;;;12.00;68.70;;;;;;5093191;28;20063;-70
2023/05/24 06:10:15;;;;;;;13.65;4.30;;;12.00;68.80;;;;;;5093160;28;20122;-70
2023/05/24 06:12:41;;;;;;;15.63;3.92;;;12.00;69.30;;;;;;5093419;28;20043;-70
2023/05/24 06:15:07;;;;;;;13.55;4.10;;;12.10;69.00;;;;;;5076118;28;20399;-70
2023/05/24 06:17:33;;;;;;;13.38;4.00;;;12.10;68.90;;;;;;5092963;28;20383;-70
2023/05/24 06:19:59;;;;;;;12.25;3.33;;;12.10;69.00;;;;;;5092731;28;20040;-71
2023/05/24 06:22:28;;;;;;;11.07;3.80;;;12.10;69.10;;;;;;5092851;28;20031;-70
2023/05/24 06:24:54;;;;;;;9.48;3.10;;;12.20;69.30;;;;;;5127343;27;20040;-70
2023/05/24 06:27:20;;;;;;;13.20;4.20;;;12.20;69.20;;;;;;5126972;27;20391;-70
2023/05/24 06:29:45;;;;;;;12.85;3.65;;;12.20;69.20;;;;;;5126582;27;20047;-70
2023/05/24 06:32:11;;;;;;;11.45;3.92;;;12.30;69.20;;;;;;5114730;27;20052;-70
2023/05/24 06:34:37;;;;;;;10.50;3.22;;;12.30;69.10;;;;;;5072613;28;20446;-70
2023/05/24 06:37:03;;;;;;;15.77;3.72;;;12.30;69.10;;;;;;5089239;28;20036;-70
2023/05/24 06:39:29;;;;;;;16.25;4.40;;;12.40;69.30;;;;;;5055577;28;20087;-71
2023/05/24 06:41:54;;;;;;;14.57;4.10;;;12.40;69.30;;;;;;5072121;28;20076;-71
2023/05/24 06:44:22;;;;;;;10.35;3.80;;;12.40;69.50;;;;;;5073421;28;20052;-71
2023/05/24 06:46:47;;;;;;;14.57;3.78;;;12.50;69.60;;;;;;5088812;28;20099;-70
2023/05/24 06:49:13;;;;;;;13.80;3.63;;;12.50;69.70;;;;;;5088648;28;20040;-70
2023/05/24 06:51:39;;;;;;;14.02;3.92;;;12.60;69.80;;;;;;5092391;28;20128;-70
2023/05/24 06:54:05;;;;;;;16.58;4.05;;;12.60;69.70;;;;;;5092402;28;20441;-70
2023/05/24 06:56:31;;;;;;;13.68;5.05;;;12.70;69.80;;;;;;5092586;28;20425;-70
2023/05/24 06:58:58;;;;;;;16.63;4.68;;;12.70;69.90;;;;;;5092127;28;20555;-70
2023/05/24 07:01:23;;;;;;;13.23;3.70;;;12.70;70.00;;;;;;5092208;28;20503;-70
2023/05/24 07:03:49;;;;;;;17.10;4.60;;;12.80;70.00;;;;;;5075310;28;20043;-70
2023/05/24 07:06:15;;;;;;;17.52;4.05;;;12.90;70.10;;;;;;5091845;28;20666;-70
2023/05/24 07:08:41;;;;;;;16.10;4.55;;;13.00;70.20;;;;;;5126480;27;20044;-70
2023/05/24 07:11:07;;;;;;;13.55;4.10;;;13.00;70.50;;;;;;5126260;27;20043;-70
2023/05/24 07:13:33;;;;;;;16.23;4.68;;;13.10;70.60;;;;;;5126315;27;20039;-70
2023/05/24 07:15:59;;;;;;;16.40;4.07;;;13.20;70.20;;;;;;5126033;27;20047;-70
2023/05/24 07:18:25;;;;;;;15.75;4.68;;;13.30;70.00;;;;;;5126006;27;20048;-71
2023/05/24 07:20:50;;;;;;;14.35;4.72;;;13.40;69.60;;;;;;5074624;28;20040;-70
2023/05/24 07:23:16;;;;;;;13.25;4.00;;;13.50;69.20;;;;;;5125903;27;20043;-70
2023/05/24 07:25:42;;;;;;;14.25;4.40;;;13.50;69.00;;;;;;5091925;28;20544;-70
2023/05/24 07:28:07;;;;;;;21.10;4.57;;;13.60;69.20;;;;;;5091796;28;20032;-70
2023/05/24 07:30:34;;;;;;;20.52;4.68;;;13.70;69.20;;;;;;5091735;28;20052;-70
2023/05/24 07:33:00;;;;;;;12.65;3.90;;;13.80;68.80;;;;;;5091805;28;20101;-70
2023/05/24 07:35:28;;;;;;;14.60;3.60;;;13.90;68.30;;;;;;5091645;28;20043;-70
2023/05/24 07:37:53;;;;;;;12.48;3.97;;;14.00;68.00;;;;;;5091769;28;20130;-70
2023/05/24 07:40:20;;;;;;;12.95;3.95;;;14.10;67.80;;;;;;5091541;28;20495;-70
2023/05/24 07:42:46;;;;;;;11.95;3.90;;;14.30;67.00;;;;;;5096078;28;20056;-70
2023/05/24 07:45:12;;;;;;;11.65;4.10;;;14.40;66.50;;;;;;5098691;28;20411;-70
2023/05/24 07:47:38;;;;;;;17.25;4.30;;;14.50;66.00;;;;;;5098369;28;20032;-70
2023/05/24 07:50:04;;;;;;;11.57;3.67;;;14.60;65.70;;;;;;5098602;28;20040;-70
2023/05/24 07:52:30;;;;;;;11.38;3.35;;;14.80;65.30;;;;;;5098095;28;20043;-70
2023/05/24 07:54:55;;;;;;;11.55;3.88;;;14.90;64.80;;;;;;5132557;27;20048;-71
2023/05/24 07:57:21;;;;;;;9.23;3.42;;;15.00;64.70;;;;;;5132355;27;20126;-71
2023/05/24 07:59:47;;;;;;;14.52;3.97;;;15.10;63.90;;;;;;5132739;27;20059;-70
2023/05/24 08:02:14;;;;;;;10.50;3.20;;;15.10;62.90;;;;;;5132690;27;20050;-70
2023/05/24 08:04:40;;;;;;;9.38;3.65;;;15.20;62.00;;;;;;5132678;27;20391;-70
2023/05/24 08:07:06;;;;;;;14.10;3.42;;;15.30;61.30;;;;;;5098413;28;20076;-71
2023/05/24 08:09:36;;;;;;;12.52;3.42;;;15.30;60.20;;;;;;5125302;27;20122;-71
2023/05/24 08:12:04;;;;;;;12.90;4.13;;;15.30;60.00;;;;;;5094166;28;20047;-71
2023/05/24 08:14:30;;;;;;;12.68;3.95;;;15.40;59.80;;;;;;5078154;28;20048;-70
2023/05/24 08:16:55;;;;;;;10.73;3.28;;;15.50;60.50;;;;;;5077913;28;20119;-71
2023/05/24 08:19:22;;;;;;;11.70;3.83;;;15.60;60.00;;;;;;5077921;28;20098;-71
2023/05/24 08:21:48;;;;;;;8.18;2.97;;;15.60;59.70;;;;;;5077706;28;20037;-70
2023/05/24 08:24:14;;;;;;;9.95;2.65;;;15.80;59.30;;;;;;5088420;28;20040;-70
2023/05/24 08:26:40;;;;;;;14.10;3.63;;;15.80;58.80;;;;;;5097958;28;20097;-70
2023/05/24 08:29:05;;;;;;;13.10;4.28;;;15.90;59.10;;;;;;5097952;28;20445;-70
2023/05/24 08:31:34;;;;;;;10.95;3.38;;;16.00;58.40;;;;;;5098281;28;20044;-71
2023/05/24 08:34:01;;;;;;;10.57;3.70;;;16.10;58.00;;;;;;5081087;28;20475;-70
2023/05/24 08:36:27;;;;;;;14.45;3.22;;;16.20;57.90;;;;;;5097723;28;20119;-71
2023/05/24 08:38:52;;;;;;;13.38;3.90;;;16.30;57.30;;;;;;5097854;28;20547;-71
2023/05/24 08:41:18;;;;;;;14.02;4.38;;;16.40;56.60;;;;;;5080529;28;20135;-70
2023/05/24 08:43:46;;;;;;;8.70;3.05;;;16.40;56.10;;;;;;5098137;28;20062;-71
2023/05/24 08:46:14;;;;;;;9.98;2.95;;;16.40;56.40;;;;;;5097955;28;20040;-70
2023/05/24 08:48:47;;;;;;;15.48;3.67;;;16.40;56.20;;;;;;5099172;28;20039;-70
2023/05/24 08:51:16;;;;;;;10.82;3.22;;;16.40;56.60;;;;;;5097318;28;20033;-71
2023/05/24 08:53:47;;;;;;;11.93;3.17;;;16.50;58.10;;;;;;5095564;28;20047;-70
2023/05/24 08:56:16;;;;;;;10.32;3.50;;;16.70;57.90;;;;;;5094881;28;20051;-70
2023/05/24 08:58:42;;;;;;;10.65;3.25;;;16.90;58.00;;;;;;5094756;28;20048;-70
2023/05/24 09:01:15;;;;;;;15.00;3.35;;;17.20;56.90;;;;;;5094582;28;20048;-71
2023/05/24 09:03:45;;;;;;;13.80;3.90;;;17.30;56.00;;;;;;5094135;28;20120;-70
2023/05/24 09:06:13;;;;;;;9.40;3.25;;;17.60;55.70;;;;;;5128540;27;20310;-70
2023/05/24 09:08:40;;;;;;;7.93;2.70;;;17.70;55.00;;;;;;5128793;27;20119;-71
2023/05/24 09:11:07;;;;;;;15.40;4.20;;;17.90;54.50;;;;;;5112321;27;20040;-71
2023/05/24 09:13:34;;;;;;;13.30;3.50;;;17.90;53.20;;;;;;5094559;28;20048;-66
2023/05/24 09:16:00;;;;;;;15.07;4.85;;;18.00;52.60;;;;;;5094054;28;20044;-66
2023/05/24 09:18:26;;;;;;;9.82;2.92;;;18.00;52.00;;;;;;5127139;27;20061;-66
2023/05/24 09:20:52;;;;;;;9.32;3.50;;;18.10;52.20;;;;;;5128020;27;20055;-66
2023/05/24 09:23:17;;;;;;;10.27;3.45;;;18.10;52.10;;;;;;5123512;27;20032;-66
2023/05/24 09:25:44;;;;;;;12.90;3.40;;;18.10;51.60;;;;;;5094169;28;20046;-66
2023/05/24 09:28:17;;;;;;;13.02;3.80;;;18.10;50.90;;;;;;5076968;28;20044;-66
2023/05/24 09:30:44;;;;;;;11.25;3.22;;;18.10;50.70;;;;;;5090787;28;20040;-66
2023/05/24 09:33:11;;;;;;;8.73;3.00;;;18.10;51.30;;;;;;5093796;28;20050;-66
2023/05/24 09:35:40;;;;;;;9.65;3.25;;;18.00;51.30;;;;;;5093895;28;20044;-66
2023/05/24 09:38:06;;;;;;;10.48;3.20;;;18.10;51.60;;;;;;5093834;28;20061;-66
2023/05/24 09:40:32;;;;;;;8.60;2.75;;;18.00;51.10;;;;;;5093760;28;20376;-66
2023/05/24 09:43:02;;;;;;;6.93;2.80;;;18.00;51.50;;;;;;5093198;28;20059;-66
2023/05/24 09:45:28;;;;;;;10.57;3.05;;;18.10;51.40;;;;;;5093841;28;20040;-66
2023/05/24 09:47:54;;;;;;;8.60;3.10;;;18.00;51.40;;;;;;5093719;28;20550;-66
2023/05/24 09:50:19;;;;;;;9.48;2.92;;;18.00;51.80;;;;;;5093213;28;20544;-66
2023/05/24 09:52:46;;;;;;;8.57;2.95;;;18.00;52.00;;;;;;5093466;28;20120;-66
2023/05/24 09:55:16;;;;;;;8.55;3.22;;;18.00;52.00;;;;;;5088787;28;20040;-67
2023/05/24 09:58:04;;;;;;;11.02;3.40;;;18.00;51.90;;;;;;5111844;27;20438;-66
2023/05/24 10:00:42;;;;;;;10.07;2.83;;;18.00;51.70;;;;;;5077875;28;20067;-67
2023/05/24 10:03:11;;;;;;;9.13;3.17;;;18.00;50.60;;;;;;5088602;28;20028;-67
2023/05/24 10:05:40;;;;;;;8.63;2.83;;;18.00;50.20;;;;;;5112121;27;20115;-66
2023/05/24 10:08:08;;;;;;;8.85;3.20;;;17.90;51.10;;;;;;5089807;28;20040;-66
2023/05/24 10:10:34;;;;;;;10.10;3.33;;;17.90;51.40;;;;;;5113493;28;20051;-66
2023/05/24 10:13:00;;;;;;;8.40;3.03;;;17.90;51.70;;;;;;5107511;28;20031;-66
2023/05/24 10:15:27;;;;;;;8.25;2.20;;;18.00;51.50;;;;;;5076212;28;20097;-66
2023/05/24 10:17:54;;;;;;;9.05;2.70;;;17.90;51.60;;;;;;5092990;28;20044;-66
2023/05/24 10:20:21;;;;;;;7.80;3.17;;;17.90;51.90;;;;;;5093968;28;20051;-66
2023/05/24 10:22:51;;;;;;;8.75;2.85;;;17.90;51.90;;;;;;5110894;28;20116;-66
2023/05/24 10:25:24;;;;;;;8.07;2.80;;;17.90;51.90;;;;;;5094087;28;20047;-66
2023/05/24 10:27:52;;;;;;;8.70;3.20;;;18.00;51.90;;;;;;5092876;28;20082;-66
2023/05/24 10:30:41;;;;;;;8.35;2.92;;;18.00;51.90;;;;;;5092818;28;20043;-66
2023/05/24 10:33:08;;;;;;;9.02;2.90;;;18.00;52.30;;;;;;5092911;28;20044;-66
2023/05/24 10:35:36;;;;;;;10.20;2.80;;;18.10;52.20;;;;;;5092828;28;20100;-66
2023/05/24 10:38:06;;;;;;;6.78;2.35;;;18.20;52.20;;;;;;5092716;28;20079;-66
2023/05/24 10:40:33;;;;;;;8.18;3.13;;;18.30;51.40;;;;;;5092166;28;20040;-66
2023/05/24 10:43:02;;;;;;;9.32;3.22;;;18.30;51.90;;;;;;5092076;28;20060;-66
2023/05/24 10:45:34;;;;;;;7.15;3.45;;;18.40;51.70;;;;;;5092799;28;20516;-66
2023/05/24 10:48:12;;;;;;;11.73;3.38;;;18.50;51.30;;;;;;5092682;28;20387;-66
2023/05/24 10:50:38;;;;;;;8.05;2.72;;;18.60;51.10;;;;;;5092360;28;20524;-66
2023/05/24 10:53:15;;;;;;;11.70;3.17;;;18.70;49.90;;;;;;5092577;28;20626;-66
2023/05/24 10:56:12;;;;;;;8.40;2.88;;;18.70;49.50;;;;;;5079061;28;20036;-66
2023/05/24 10:58:56;;;;;;;5.88;2.75;;;18.60;50.70;;;;;;5064317;28;20056;-66
2023/05/24 11:01:26;;;;;;;;;;;18.60;50.20;;;;;;5082307;28;20127;-66
2023/05/24 11:03:52;;;;;;;7.18;2.85;;;18.70;50.80;;;;;;5064732;28;20007;-66
2023/05/24 11:06:18;;;;;;;6.28;2.60;;;18.80;50.40;;;;;;5063784;28;20043;-66
2023/05/24 11:08:45;;;;;;;8.55;3.05;;;18.90;50.40;;;;;;5074866;28;20047;-66
2023/05/24 11:11:19;;;;;;;8.02;3.05;;;18.90;50.80;;;;;;5072580;28;20036;-66
2023/05/24 11:13:48;;;;;;;8.25;2.58;;;19.10;50.50;;;;;;5093672;28;20042;-66
2023/05/24 11:16:37;;;;;;;9.20;3.30;;;19.20;49.40;;;;;;5109704;27;20036;-65
2023/05/24 11:19:17;;;;;;;7.18;2.55;;;19.30;48.30;;;;;;5111667;27;20040;-65
2023/05/24 11:21:48;;;;;;;7.75;2.70;;;19.40;48.30;;;;;;5076738;28;20032;-65
2023/05/24 11:24:19;;;;;;;7.60;2.97;;;19.40;48.80;;;;;;5076448;28;20178;-65
2023/05/24 11:26:45;;;;;;;7.70;2.70;;;19.50;48.30;;;;;;5077262;28;20070;-65
2023/05/24 11:29:16;;;;;;;10.63;3.33;;;19.50;47.00;;;;;;5111821;27;20087;-65
2023/05/24 11:31:51;;;;;;;9.13;3.25;;;19.50;46.70;;;;;;5110846;27;20052;-65
2023/05/24 11:34:18;;;;;;;8.93;2.90;;;19.50;47.20;;;;;;5078957;28;20043;-65
2023/05/24 11:36:45;;;;;;;9.10;2.92;;;19.60;47.40;;;;;;5109240;27;20097;-65
2023/05/24 11:39:12;;;;;;;8.25;2.42;;;19.60;47.10;;;;;;5111350;27;20040;-65
2023/05/24 11:41:39;;;;;;;8.77;2.85;;;19.40;46.00;;;;;;5093659;28;20056;-65
2023/05/24 11:44:08;;;;;;;8.15;2.95;;;19.60;46.80;;;;;;5109400;28;20044;-66
2023/05/24 11:46:34;;;;;;;8.55;2.90;;;19.60;47.60;;;;;;5108413;28;20517;-65
2023/05/24 11:49:00;;;;;;;7.28;2.97;;;19.70;47.80;;;;;;5112437;28;20171;-66
2023/05/24 11:51:28;;;;;;;6.95;2.75;;;19.80;47.30;;;;;;5060737;28;20040;-65
2023/05/24 11:53:55;;;;;;;5.00;2.28;;;19.80;46.00;;;;;;5060565;28;20575;-65
2023/05/24 11:56:22;;;;;;;6.45;2.00;;;19.90;44.60;;;;;;5077226;28;20035;-65
2023/05/24 11:58:49;;;;;;;6.80;2.55;;;19.90;43.80;;;;;;5077387;28;20051;-65
2023/05/24 12:01:27;;;;;;;5.60;2.40;;;19.80;44.50;;;;;;5107648;28;20078;-65
2023/05/24 12:03:53;;;;;;;6.28;2.38;;;19.90;45.60;;;;;;5093728;28;20044;-65
2023/05/24 12:06:20;;;;;;;6.70;2.08;;;19.90;45.10;;;;;;5060302;28;20040;-65
2023/05/24 12:08:47;;;;;;;6.50;2.47;;;19.90;45.20;;;;;;5078972;28;20027;-65
2023/05/24 12:11:14;;;;;;;5.40;1.90;;;19.90;44.50;;;;;;5110659;28;20074;-66
2023/05/24 12:13:40;;;;;;;6.97;2.15;;;19.80;44.70;;;;;;5076463;28;20052;-65
2023/05/24 12:16:07;;;;;;;6.20;1.98;;;19.80;45.20;;;;;;5107185;27;20048;-65
2023/05/24 12:18:32;;;;;;;5.85;2.10;;;19.90;44.80;;;;;;5076902;28;20100;-66
2023/05/24 12:20:58;;;;;;;9.43;2.97;;;19.90;44.90;;;;;;5109769;28;20076;-65
2023/05/24 12:23:28;;;;;;;5.15;1.90;;;19.90;43.80;;;;;;5091990;28;20031;-65
2023/05/24 12:26:00;;;;;;;5.68;1.90;;;19.90;43.60;;;;;;5092747;28;20118;-65
2023/05/24 12:28:34;;;;;;;6.43;2.35;;;19.90;42.70;;;;;;5076996;28;20094;-65
2023/05/24 12:31:00;;;;;;;5.07;1.95;;;19.80;42.40;;;;;;5080413;28;20079;-65
2023/05/24 12:33:27;;;;;;;5.95;2.30;;;19.80;42.90;;;;;;5097551;28;20079;-65
2023/05/24 12:35:53;;;;;;;5.70;1.85;;;19.80;43.90;;;;;;5113700;27;20048;-65
2023/05/24 12:38:24;;;;;;;5.35;2.00;;;19.80;44.00;;;;;;5111510;27;20121;-65
2023/05/24 12:40:51;;;;;;;6.68;2.08;;;19.80;43.80;;;;;;5060441;28;20040;-65
2023/05/24 12:43:19;;;;;;;7.93;2.63;;;19.80;44.00;;;;;;5079637;28;20376;-65
2023/05/24 12:45:45;;;;;;;6.32;2.25;;;19.70;43.40;;;;;;5079993;28;21553;-65